createdAt,value
2023-05-13T00:01:31.529Z,16.42
2023-05-13T00:03:58.556Z,16.71
2023-05-13T00:06:25.613Z,16.35
2023-05-13T00:08:54.682Z,16.94
2023-05-13T00:11:21.701Z,16.61
2023-05-13T00:13:48.732Z,16.58
2023-05-13T00:16:15.989Z,16.46
2023-05-13T00:18:43.077Z,16.34
2023-05-13T00:21:10.459Z,16.13
2023-05-13T00:23:37.941Z,16.29
2023-05-13T00:26:05.222Z,15.98
2023-05-13T00:28:32.256Z,15.80
2023-05-13T00:30:59.332Z,15.85
2023-05-13T00:33:26.399Z,16.36
2023-05-13T00:35:53.465Z,16.25
2023-05-13T00:38:20.550Z,16.37
2023-05-13T00:40:48.449Z,15.82
2023-05-13T00:43:15.477Z,15.68
2023-05-13T00:45:42.550Z,15.77
2023-05-13T00:48:10.249Z,15.83
2023-05-13T00:50:38.857Z,15.35
2023-05-13T00:53:05.921Z,15.64
2023-05-13T00:55:33.130Z,15.82
2023-05-13T00:58:00.204Z,15.47
2023-05-13T01:00:31.161Z,15.53
2023-05-13T01:03:12.790Z,15.29
2023-05-13T01:05:56.807Z,15.53
2023-05-13T01:08:42.199Z,15.38
2023-05-13T01:11:29.636Z,15.58
2023-05-13T01:14:29.249Z,16.01
2023-05-13T01:17:07.896Z,15.94
2023-05-13T01:19:54.492Z,15.45
2023-05-13T01:22:21.583Z,15.64
2023-05-13T01:24:50.406Z,15.80
2023-05-13T01:27:17.778Z,15.85
2023-05-13T01:29:45.670Z,16.06
2023-05-13T01:32:13.971Z,15.92
2023-05-13T01:34:41.765Z,15.66
2023-05-13T01:37:09.215Z,15.91
2023-05-13T01:39:38.655Z,15.44
2023-05-13T01:42:09.239Z,15.63
2023-05-13T01:44:36.364Z,15.48
2023-05-13T01:47:03.423Z,15.61
2023-05-13T01:49:30.722Z,15.53
2023-05-13T01:51:57.891Z,15.22
2023-05-13T01:54:25.848Z,15.03
2023-05-13T01:56:52.936Z,15.12
2023-05-13T01:59:19.998Z,15.36
2023-05-13T02:01:47.057Z,14.88
2023-05-13T02:04:14.167Z,15.22
2023-05-13T02:06:41.235Z,15.17
2023-05-13T02:09:08.309Z,15.11
2023-05-13T02:11:36.473Z,14.79
2023-05-13T02:14:03.578Z,14.67
2023-05-13T02:16:31.625Z,14.56
2023-05-13T02:18:58.794Z,14.72
2023-05-13T02:21:26.023Z,14.35
2023-05-13T02:23:53.205Z,14.47
2023-05-13T02:26:20.781Z,14.51
2023-05-13T02:28:48.304Z,14.21
2023-05-13T02:31:15.389Z,14.26
2023-05-13T02:33:42.508Z,13.94
2023-05-13T02:36:09.635Z,14.50
2023-05-13T02:38:36.958Z,14.04
2023-05-13T02:41:04.100Z,13.84
2023-05-13T02:43:31.161Z,13.90
2023-05-13T02:45:58.355Z,14.10
2023-05-13T02:48:25.515Z,14.25
2023-05-13T02:50:52.724Z,14.08
2023-05-13T02:53:19.721Z,14.12
2023-05-13T02:55:46.919Z,14.05
2023-05-13T02:58:14.110Z,13.99
2023-05-13T03:00:41.315Z,13.96
2023-05-13T03:03:08.530Z,13.58
2023-05-13T03:05:35.746Z,13.81
2023-05-13T03:08:02.832Z,13.56
2023-05-13T03:10:29.972Z,14.21
2023-05-13T03:12:57.224Z,14.02
2023-05-13T03:15:24.437Z,14.16
2023-05-13T03:17:51.593Z,13.88
2023-05-13T03:20:18.861Z,13.92
2023-05-13T03:22:45.968Z,14.10
2023-05-13T03:25:13.037Z,13.58
2023-05-13T03:27:40.190Z,13.70
2023-05-13T03:30:08.287Z,14.01
2023-05-13T03:32:35.809Z,13.86
2023-05-13T03:35:03.574Z,14.16
2023-05-13T03:37:30.802Z,14.03
2023-05-13T03:39:57.970Z,13.96
2023-05-13T03:42:26.139Z,13.73
2023-05-13T03:44:53.264Z,13.69
2023-05-13T03:47:20.415Z,13.41
2023-05-13T03:49:48.851Z,13.73
2023-05-13T03:52:16.718Z,13.62
2023-05-13T03:54:43.993Z,13.56
2023-05-13T03:57:11.080Z,13.31
2023-05-13T03:59:38.138Z,13.37
2023-05-13T04:02:06.286Z,13.39
2023-05-13T04:04:33.461Z,13.42
2023-05-13T04:07:00.527Z,13.40
2023-05-13T04:09:27.578Z,13.43
2023-05-13T04:11:54.663Z,13.51
2023-05-13T04:14:21.706Z,13.60
2023-05-13T04:16:48.986Z,13.95
2023-05-13T04:19:16.419Z,13.45
2023-05-13T04:21:43.511Z,14.07
2023-05-13T04:24:10.840Z,14.37
2023-05-13T04:26:39.118Z,14.24
2023-05-13T04:29:06.160Z,13.93
2023-05-13T04:31:33.359Z,14.34
2023-05-13T04:34:00.893Z,14.42
2023-05-13T04:36:28.011Z,14.53
2023-05-13T04:38:55.696Z,14.31
2023-05-13T04:41:22.757Z,14.42
2023-05-13T04:43:49.855Z,14.64
2023-05-13T04:46:17.192Z,14.60
2023-05-13T04:48:48.155Z,14.48
2023-05-13T04:51:16.491Z,14.79
2023-05-13T04:53:44.090Z,14.96
2023-05-13T04:56:11.230Z,15.29
2023-05-13T04:58:38.817Z,15.57
2023-05-13T05:01:06.118Z,15.49
2023-05-13T05:03:33.828Z,15.76
2023-05-13T05:06:00.992Z,15.77
2023-05-13T05:08:28.781Z,15.68
2023-05-13T05:10:56.004Z,16.39
2023-05-13T05:13:23.114Z,17.03
2023-05-13T05:15:50.276Z,16.74
2023-05-13T05:18:17.395Z,16.68
2023-05-13T05:20:44.525Z,17.07
2023-05-13T05:23:11.807Z,17.14
2023-05-13T05:25:39.118Z,17.32
2023-05-13T05:28:06.385Z,17.55
2023-05-13T05:30:39.427Z,17.01
2023-05-13T05:33:08.186Z,16.94
2023-05-13T05:35:38.374Z,17.37
2023-05-13T05:38:07.760Z,17.39
2023-05-13T05:40:41.674Z,17.25
2023-05-13T05:43:10.961Z,17.21
2023-05-13T05:45:39.278Z,17.94
2023-05-13T05:48:07.490Z,18.27
2023-05-13T05:50:34.975Z,17.54
2023-05-13T05:53:02.842Z,18.77
2023-05-13T05:55:32.355Z,17.81
2023-05-13T05:58:05.333Z,18.29
2023-05-13T06:00:33.354Z,18.88
2023-05-13T06:03:00.624Z,18.08
2023-05-13T06:05:28.194Z,17.99
2023-05-13T06:07:55.261Z,18.31
2023-05-13T06:10:22.496Z,18.23
2023-05-13T06:12:51.326Z,18.93
2023-05-13T06:15:18.566Z,18.23
2023-05-13T06:17:45.666Z,18.74
2023-05-13T06:20:13.155Z,18.57
2023-05-13T06:22:41.761Z,17.99
2023-05-13T06:25:09.388Z,19.25
2023-05-13T06:27:37.141Z,18.29
2023-05-13T06:30:05.377Z,18.32
2023-05-13T06:32:32.663Z,18.66
2023-05-13T06:34:59.750Z,18.65
2023-05-13T06:37:27.044Z,18.69
2023-05-13T06:39:54.166Z,19.51
2023-05-13T06:42:21.390Z,20.30
2023-05-13T06:44:48.548Z,20.13
2023-05-13T06:47:22.511Z,19.38
2023-05-13T06:49:50.940Z,19.51
2023-05-13T06:52:18.315Z,19.51
2023-05-13T06:54:45.378Z,19.11
2023-05-13T06:57:12.451Z,20.18
2023-05-13T06:59:39.798Z,19.73
2023-05-13T07:02:09.680Z,19.29
2023-05-13T07:04:37.438Z,18.80
2023-05-13T07:07:04.907Z,20.05
2023-05-13T07:09:33.150Z,20.02
2023-05-13T07:12:00.382Z,20.19
2023-05-13T07:14:27.780Z,19.83
2023-05-13T07:16:54.984Z,19.60
2023-05-13T07:19:22.182Z,19.37
2023-05-13T07:21:49.548Z,19.84
2023-05-13T07:24:16.863Z,20.03
2023-05-13T07:26:45.132Z,20.24
2023-05-13T07:29:12.192Z,20.48
2023-05-13T07:31:39.406Z,20.37
2023-05-13T07:34:06.762Z,20.42
2023-05-13T07:36:34.249Z,19.94
2023-05-13T07:39:02.260Z,20.64
2023-05-13T07:41:29.580Z,20.16
2023-05-13T07:43:57.089Z,20.70
2023-05-13T07:46:24.223Z,20.46
2023-05-13T07:48:51.315Z,20.60
2023-05-13T07:51:18.440Z,20.60
2023-05-13T07:53:46.973Z,21.13
2023-05-13T07:56:14.048Z,20.83
2023-05-13T07:58:41.127Z,20.86
2023-05-13T08:01:08.249Z,21.38
2023-05-13T08:03:36.049Z,21.01
2023-05-13T08:06:03.345Z,22.46
2023-05-13T08:08:30.425Z,21.89
2023-05-13T08:10:57.712Z,21.97
2023-05-13T08:13:25.656Z,21.96
2023-05-13T08:15:52.725Z,22.96
2023-05-13T08:18:20.084Z,22.72
2023-05-13T08:20:47.268Z,22.33
2023-05-13T08:23:14.754Z,22.17
2023-05-13T08:25:41.929Z,23.14
2023-05-13T08:28:08.970Z,23.57
2023-05-13T08:30:38.877Z,23.35
2023-05-13T08:33:05.931Z,22.64
2023-05-13T08:35:33.162Z,22.76
2023-05-13T08:38:00.424Z,23.58
2023-05-13T08:40:28.015Z,23.87
2023-05-13T08:42:57.702Z,22.99
2023-05-13T08:45:28.804Z,23.67
2023-05-13T08:48:02.970Z,24.23
2023-05-13T08:50:30.667Z,24.34
2023-05-13T08:53:00.942Z,24.30
2023-05-13T08:55:29.207Z,23.96
2023-05-13T08:57:56.571Z,24.15
2023-05-13T09:00:23.944Z,23.91
2023-05-13T09:02:51.761Z,23.87
2023-05-13T09:05:21.230Z,24.14
2023-05-13T09:07:48.567Z,24.60
2023-05-13T09:10:17.491Z,24.85
2023-05-13T09:12:54.640Z,24.25
2023-05-13T09:15:27.507Z,25.72
2023-05-13T09:18:18.014Z,24.07
2023-05-13T09:20:46.121Z,24.80
2023-05-13T09:23:15.856Z,24.42
2023-05-13T09:25:43.795Z,24.75
2023-05-13T09:28:15.316Z,25.57
2023-05-13T09:30:46.157Z,25.74
2023-05-13T09:33:22.805Z,24.86
2023-05-13T09:35:53.602Z,23.79
2023-05-13T09:38:37.071Z,24.44
2023-05-13T09:41:04.991Z,25.21
2023-05-13T09:43:33.686Z,24.85
2023-05-13T09:46:08.963Z,25.11
2023-05-13T09:48:39.208Z,25.48
2023-05-13T09:51:06.281Z,24.69
2023-05-13T09:53:36.100Z,25.59
2023-05-13T09:56:03.234Z,26.66
2023-05-13T09:58:31.049Z,26.37
2023-05-13T10:00:58.704Z,26.90
2023-05-13T10:03:27.246Z,26.80
2023-05-13T10:05:55.167Z,25.95
2023-05-13T10:08:23.311Z,26.77
2023-05-13T10:10:53.908Z,26.01
2023-05-13T10:13:25.384Z,27.53
2023-05-13T10:15:55.371Z,26.53
2023-05-13T10:18:27.448Z,27.16
2023-05-13T10:20:55.660Z,27.59
2023-05-13T10:23:24.202Z,25.99
2023-05-13T10:25:55.308Z,27.15
2023-05-13T10:28:25.088Z,27.08
2023-05-13T10:30:52.512Z,25.41
2023-05-13T10:33:20.535Z,26.65
2023-05-13T10:36:22.538Z,26.26
2023-05-13T10:39:42.627Z,25.14
2023-05-13T10:42:43.056Z,25.12
2023-05-13T10:45:11.178Z,25.57
2023-05-13T10:47:39.343Z,24.95
2023-05-13T10:50:26.978Z,25.03
2023-05-13T10:52:58.651Z,25.11
2023-05-13T10:55:27.382Z,26.34
2023-05-13T10:58:14.958Z,27.73
2023-05-13T11:00:45.345Z,26.25
2023-05-13T11:03:20.281Z,26.31
2023-05-13T11:06:13.441Z,26.69
2023-05-13T11:08:50.216Z,26.42
2023-05-13T11:11:23.072Z,26.41
2023-05-13T11:14:03.571Z,26.30
2023-05-13T11:16:33.091Z,27.28
2023-05-13T11:19:18.833Z,26.19
2023-05-13T11:21:52.917Z,25.83
2023-05-13T11:24:22.038Z,26.91
2023-05-13T11:26:52.880Z,27.81
2023-05-13T11:29:36.149Z,25.81
2023-05-13T11:32:06.791Z,26.43
2023-05-13T11:34:34.848Z,27.62
2023-05-13T11:37:04.957Z,28.90
2023-05-13T11:39:33.363Z,28.68
2023-05-13T11:42:03.955Z,27.49
2023-05-13T11:44:31.562Z,27.48
2023-05-13T11:47:03.141Z,28.06
2023-05-13T11:49:41.391Z,27.12
2023-05-13T11:52:15.114Z,26.76
2023-05-13T11:54:54.039Z,27.53
2023-05-13T11:57:32.438Z,26.87
2023-05-13T12:00:08.441Z,27.71
2023-05-13T12:02:40.155Z,27.11
2023-05-13T12:05:11.179Z,26.81
2023-05-13T12:07:39.780Z,27.95
2023-05-13T12:10:08.242Z,27.98
2023-05-13T12:12:50.558Z,28.71
2023-05-13T12:15:20.873Z,26.66
2023-05-13T12:17:49.360Z,26.94
2023-05-13T12:20:24.609Z,27.63
2023-05-13T12:22:54.660Z,27.31
2023-05-13T12:25:46.561Z,28.40
2023-05-13T12:28:24.107Z,28.61
2023-05-13T12:30:56.876Z,27.26
2023-05-13T12:33:27.569Z,28.74
2023-05-13T12:36:16.162Z,28.65
2023-05-13T12:39:01.048Z,28.04
2023-05-13T12:41:36.344Z,29.13
2023-05-13T12:44:08.731Z,26.53
2023-05-13T12:46:37.298Z,26.38
2023-05-13T12:49:06.062Z,26.50
2023-05-13T12:51:33.994Z,27.38
2023-05-13T12:54:01.657Z,28.09
2023-05-13T12:56:29.051Z,28.36
2023-05-13T12:58:56.297Z,28.47
2023-05-13T13:01:28.390Z,28.52
2023-05-13T13:03:55.929Z,29.06
2023-05-13T13:06:23.165Z,29.62
2023-05-13T13:08:50.977Z,28.76
2023-05-13T13:11:21.503Z,30.21
2023-05-13T13:13:50.269Z,29.87
2023-05-13T13:16:20.530Z,27.88
2023-05-13T13:18:47.737Z,28.94
2023-05-13T13:21:15.065Z,27.30
2023-05-13T13:23:42.372Z,26.99
2023-05-13T13:26:09.517Z,27.37
2023-05-13T13:28:39.934Z,27.04
2023-05-13T13:31:10.707Z,28.00
2023-05-13T13:33:37.724Z,27.03
2023-05-13T13:36:05.330Z,28.00
2023-05-13T13:38:32.426Z,27.94
2023-05-13T13:40:59.557Z,27.74
2023-05-13T13:43:31.270Z,27.81
2023-05-13T13:45:58.640Z,26.81
2023-05-13T13:48:25.754Z,27.22
2023-05-13T13:50:54.038Z,27.48
2023-05-13T13:53:22.106Z,26.67
2023-05-13T13:55:49.316Z,26.75
2023-05-13T13:58:16.436Z,26.05
2023-05-13T14:00:45.012Z,25.79
2023-05-13T14:03:12.289Z,27.16
2023-05-13T14:05:39.548Z,26.89
2023-05-13T14:08:06.951Z,26.56
2023-05-13T14:10:34.156Z,26.31
2023-05-13T14:13:01.277Z,26.26
2023-05-13T14:15:31.559Z,25.47
2023-05-13T14:17:58.967Z,27.13
2023-05-13T14:20:28.741Z,27.80
2023-05-13T14:22:56.509Z,27.09
2023-05-13T14:25:23.635Z,26.82
2023-05-13T14:27:50.713Z,27.27
2023-05-13T14:30:18.013Z,26.29
2023-05-13T14:32:45.473Z,26.31
2023-05-13T14:35:14.510Z,26.63
2023-05-13T14:37:42.680Z,28.73
2023-05-13T14:40:10.402Z,29.81
2023-05-13T14:42:37.474Z,28.06
2023-05-13T14:45:05.945Z,28.25
2023-05-13T14:47:33.186Z,27.83
2023-05-13T14:50:00.340Z,29.35
2023-05-13T14:52:30.420Z,28.25
2023-05-13T14:55:00.564Z,28.36
2023-05-13T14:57:27.670Z,27.42
2023-05-13T14:59:59.852Z,26.98
2023-05-13T15:02:27.315Z,27.77
2023-05-13T15:04:54.483Z,27.40
2023-05-13T15:07:21.776Z,27.29
2023-05-13T15:09:49.044Z,27.81
2023-05-13T15:12:16.134Z,26.92
2023-05-13T15:14:43.162Z,27.19
2023-05-13T15:17:12.101Z,27.37
2023-05-13T15:19:39.875Z,26.96
2023-05-13T15:22:06.966Z,27.53
2023-05-13T15:24:33.983Z,27.57
2023-05-13T15:27:03.670Z,27.14
2023-05-13T15:29:33.355Z,28.29
2023-05-13T15:32:00.381Z,27.86
2023-05-13T15:34:27.472Z,27.80
2023-05-13T15:36:54.561Z,26.79
2023-05-13T15:39:21.941Z,27.39
2023-05-13T15:41:49.057Z,26.49
2023-05-13T15:44:19.047Z,26.49
2023-05-13T15:46:48.845Z,26.98
2023-05-13T15:49:17.001Z,26.58
2023-05-13T15:51:44.154Z,26.17
2023-05-13T15:54:11.278Z,26.73
2023-05-13T15:56:39.806Z,27.39
2023-05-13T15:59:09.000Z,27.38
2023-05-13T16:01:37.509Z,26.79
2023-05-13T16:04:04.705Z,27.64
2023-05-13T16:06:31.851Z,28.04
2023-05-13T16:09:04.778Z,27.18
2023-05-13T16:11:34.363Z,26.90
2023-05-13T16:14:01.643Z,26.00
2023-05-13T16:16:28.768Z,26.35
2023-05-13T16:18:58.569Z,25.96
2023-05-13T16:21:25.774Z,25.85
2023-05-13T16:23:52.856Z,25.77
2023-05-13T16:26:19.983Z,25.66
2023-05-13T16:28:47.054Z,25.39
2023-05-13T16:31:14.257Z,24.84
2023-05-13T16:33:41.324Z,25.14
2023-05-13T16:36:11.686Z,26.13
2023-05-13T16:38:41.801Z,25.87
2023-05-13T16:41:09.340Z,25.54
2023-05-13T16:43:36.465Z,25.88
2023-05-13T16:46:03.898Z,25.20
2023-05-13T16:48:31.092Z,25.49
2023-05-13T16:50:58.311Z,26.03
2023-05-13T16:53:26.284Z,25.80
2023-05-13T16:55:56.405Z,25.20
2023-05-13T16:58:23.876Z,25.16
2023-05-13T17:00:51.929Z,24.93
2023-05-13T17:03:19.572Z,26.28
2023-05-13T17:05:46.676Z,26.00
2023-05-13T17:08:13.747Z,25.82
2023-05-13T17:10:43.640Z,24.92
2023-05-13T17:13:10.808Z,25.04
2023-05-13T17:15:37.890Z,25.45
2023-05-13T17:18:05.631Z,25.51
2023-05-13T17:20:35.747Z,24.63
2023-05-13T17:23:02.965Z,25.24
2023-05-13T17:25:30.083Z,25.41
2023-05-13T17:27:57.218Z,23.94
2023-05-13T17:30:24.524Z,23.96
2023-05-13T17:32:51.771Z,24.31
2023-05-13T17:35:19.393Z,23.62
2023-05-13T17:37:46.462Z,23.15
2023-05-13T17:40:16.388Z,23.55
2023-05-13T17:42:43.837Z,23.40
2023-05-13T17:45:11.264Z,23.04
2023-05-13T17:47:40.832Z,22.82
2023-05-13T17:50:10.618Z,22.44
2023-05-13T17:52:40.030Z,22.05
2023-05-13T17:55:08.026Z,22.04
2023-05-13T17:57:35.231Z,21.87
2023-05-13T18:00:06.445Z,22.17
2023-05-13T18:02:33.989Z,22.01
2023-05-13T18:05:01.133Z,22.03
2023-05-13T18:07:28.396Z,21.66
2023-05-13T18:09:56.575Z,21.30
2023-05-13T18:12:23.693Z,21.61
2023-05-13T18:14:50.785Z,21.59
2023-05-13T18:17:17.869Z,21.26
2023-05-13T18:19:50.810Z,21.72
2023-05-13T18:22:18.083Z,21.49
2023-05-13T18:24:46.695Z,21.51
2023-05-13T18:27:14.026Z,21.26
2023-05-13T18:29:41.082Z,21.05
2023-05-13T18:32:11.184Z,20.85
2023-05-13T18:34:38.210Z,20.31
2023-05-13T18:37:09.860Z,20.65
2023-05-13T18:39:36.941Z,20.80
2023-05-13T18:42:04.296Z,20.73
2023-05-13T18:44:31.451Z,20.41
2023-05-13T18:46:58.496Z,20.52
2023-05-13T18:49:28.666Z,20.80
2023-05-13T18:51:56.040Z,20.38
2023-05-13T18:54:24.654Z,20.37
2023-05-13T18:56:51.769Z,20.44
2023-05-13T18:59:18.891Z,20.20
2023-05-13T19:01:46.401Z,20.16
2023-05-13T19:04:15.278Z,19.95
2023-05-13T19:06:42.479Z,19.56
2023-05-13T19:09:12.255Z,19.13
2023-05-13T19:11:39.478Z,18.79
2023-05-13T19:14:07.094Z,18.79
2023-05-13T19:16:34.529Z,18.84
2023-05-13T19:19:01.659Z,18.55
2023-05-13T19:21:28.735Z,18.78
2023-05-13T19:23:55.954Z,19.06
2023-05-13T19:26:23.039Z,19.25
2023-05-13T19:28:50.592Z,19.02
2023-05-13T19:31:18.091Z,18.67
2023-05-13T19:33:46.333Z,18.72
2023-05-13T19:36:13.629Z,18.74
2023-05-13T19:38:40.750Z,18.89
2023-05-13T19:41:07.827Z,18.01
2023-05-13T19:43:34.867Z,17.67
2023-05-13T19:46:05.531Z,17.28
2023-05-13T19:48:32.664Z,16.88
2023-05-13T19:50:59.715Z,16.60
2023-05-13T19:53:26.890Z,16.98
2023-05-13T19:55:55.398Z,16.66
2023-05-13T19:58:22.741Z,17.10
2023-05-13T20:00:51.003Z,16.64
2023-05-13T20:03:18.120Z,16.34
2023-05-13T20:05:50.925Z,16.04
2023-05-13T20:08:17.976Z,16.11
2023-05-13T20:10:45.225Z,16.19
2023-05-13T20:13:12.714Z,15.95
2023-05-13T20:15:40.529Z,15.98
2023-05-13T20:18:07.690Z,15.80
2023-05-13T20:20:35.361Z,15.62
2023-05-13T20:23:02.438Z,15.58
2023-05-13T20:25:29.534Z,15.66
2023-05-13T20:27:56.977Z,15.49
2023-05-13T20:30:24.712Z,15.22
2023-05-13T20:32:52.166Z,15.18
2023-05-13T20:35:19.701Z,15.16
2023-05-13T20:37:46.770Z,15.31
2023-05-13T20:40:13.948Z,15.30
2023-05-13T20:42:41.211Z,14.90
2023-05-13T20:45:08.898Z,14.91
2023-05-13T20:47:36.368Z,14.58
2023-05-13T20:50:04.172Z,14.59
2023-05-13T20:52:31.433Z,15.00
2023-05-13T20:55:01.468Z,15.47
2023-05-13T20:57:28.567Z,15.69
2023-05-13T20:59:55.729Z,15.69
2023-05-13T21:02:22.941Z,15.48
2023-05-13T21:04:52.681Z,16.06
2023-05-13T21:07:22.170Z,15.67
2023-05-13T21:09:49.236Z,14.83
2023-05-13T21:12:16.337Z,15.00
2023-05-13T21:14:43.494Z,14.45
2023-05-13T21:17:10.928Z,15.05
2023-05-13T21:19:38.079Z,15.46
2023-05-13T21:22:05.909Z,15.29
2023-05-13T21:24:33.074Z,15.35
2023-05-13T21:27:00.142Z,14.82
2023-05-13T21:29:30.162Z,14.93
2023-05-13T21:31:57.402Z,15.29
2023-05-13T21:34:24.483Z,14.49
2023-05-13T21:36:52.472Z,14.19
2023-05-13T21:39:19.625Z,14.43
2023-05-13T21:41:47.623Z,15.10
2023-05-13T21:44:14.692Z,15.69
2023-05-13T21:46:41.734Z,15.81
2023-05-13T21:49:08.866Z,14.44
2023-05-13T21:51:35.998Z,14.70
2023-05-13T21:54:03.125Z,15.25
2023-05-13T21:56:30.177Z,15.33
2023-05-13T21:58:57.206Z,15.56
2023-05-13T22:01:24.506Z,15.54
2023-05-13T22:03:51.638Z,15.73
2023-05-13T22:06:18.970Z,15.94
2023-05-13T22:08:46.270Z,15.83
2023-05-13T22:11:13.301Z,15.49
2023-05-13T22:13:41.043Z,15.84
2023-05-13T22:16:08.380Z,16.04
2023-05-13T22:18:35.676Z,15.76
2023-05-13T22:21:03.014Z,15.89
2023-05-13T22:23:30.051Z,15.61
2023-05-13T22:25:57.125Z,15.92
2023-05-13T22:28:26.519Z,16.02
2023-05-13T22:30:55.190Z,16.05
2023-05-13T22:33:22.360Z,16.39
2023-05-13T22:35:49.492Z,16.28
2023-05-13T22:38:16.610Z,16.09
2023-05-13T22:40:43.733Z,16.18
2023-05-13T22:43:10.850Z,16.36
2023-05-13T22:45:37.957Z,16.24
2023-05-13T22:48:05.265Z,16.37
2023-05-13T22:50:32.432Z,16.34
2023-05-13T22:52:59.531Z,16.28
2023-05-13T22:55:26.572Z,16.57
2023-05-13T22:57:53.679Z,15.67
2023-05-13T23:00:21.238Z,14.53
2023-05-13T23:02:48.438Z,14.73
2023-05-13T23:05:15.777Z,14.84
2023-05-13T23:07:42.833Z,14.56
2023-05-13T23:10:12.520Z,14.81
2023-05-13T23:12:39.615Z,15.36
2023-05-13T23:15:07.496Z,15.36
2023-05-13T23:17:34.657Z,15.22
2023-05-13T23:20:01.768Z,15.44
2023-05-13T23:22:28.957Z,15.08
2023-05-13T23:24:56.059Z,15.60
2023-05-13T23:27:23.132Z,15.72
2023-05-13T23:29:50.238Z,15.82
2023-05-13T23:32:17.409Z,15.89
2023-05-13T23:34:44.635Z,15.93
2023-05-13T23:37:15.577Z,15.68
2023-05-13T23:39:42.694Z,15.27
2023-05-13T23:42:09.754Z,15.70
2023-05-13T23:44:38.664Z,15.97
2023-05-13T23:47:05.888Z,15.93
2023-05-13T23:49:32.935Z,16.42
2023-05-13T23:51:59.988Z,16.49
2023-05-13T23:54:27.030Z,15.69
2023-05-13T23:56:54.088Z,16.03
2023-05-13T23:59:21.122Z,16.29
